sensor_id;sensor_type;location;lat;lon;timestamp;P1;durP1;ratioP1;P2;durP2;ratioP2
22144;SDS011;11238;48.730;11.566;2022-12-07T00:01:04;8.52;;;6.75;;
22144;SDS011;11238;48.730;11.566;2022-12-07T00:03:39;8.07;;;7.03;;
22144;SDS011;11238;48.730;11.566;2022-12-07T00:06:06;9.60;;;7.35;;
22144;SDS011;11238;48.730;11.566;2022-12-07T00:08:34;8.30;;;7.05;;
22144;SDS011;11238;48.730;11.566;2022-12-07T00:11:19;10.60;;;7.03;;
22144;SDS011;11238;48.730;11.566;2022-12-07T00:13:46;8.63;;;7.63;;
22144;SDS011;11238;48.730;11.566;2022-12-07T00:16:16;8.55;;;7.45;;
22144;SDS011;11238;48.730;11.566;2022-12-07T00:18:43;8.38;;;6.90;;
22144;SDS011;11238;48.730;11.566;2022-12-07T00:21:20;9.27;;;6.88;;
22144;SDS011;11238;48.730;11.566;2022-12-07T00:23:47;8.05;;;6.50;;
22144;SDS011;11238;48.730;11.566;2022-12-07T00:26:25;8.20;;;6.60;;
22144;SDS011;11238;48.730;11.566;2022-12-07T00:29:04;7.97;;;6.72;;
22144;SDS011;11238;48.730;11.566;2022-12-07T00:31:33;7.78;;;6.53;;
22144;SDS011;11238;48.730;11.566;2022-12-07T00:34:07;9.13;;;6.93;;
22144;SDS011;11238;48.730;11.566;2022-12-07T00:39:02;9.13;;;7.47;;
22144;SDS011;11238;48.730;11.566;2022-12-07T00:41:29;9.80;;;7.80;;
22144;SDS011;11238;48.730;11.566;2022-12-07T00:43:55;10.88;;;7.63;;
22144;SDS011;11238;48.730;11.566;2022-12-07T00:46:21;10.32;;;7.88;;
22144;SDS011;11238;48.730;11.566;2022-12-07T00:48:48;8.75;;;7.53;;
22144;SDS011;11238;48.730;11.566;2022-12-07T00:51:15;9.65;;;7.72;;
22144;SDS011;11238;48.730;11.566;2022-12-07T00:53:43;10.43;;;7.22;;
22144;SDS011;11238;48.730;11.566;2022-12-07T00:56:11;9.25;;;7.18;;
22144;SDS011;11238;48.730;11.566;2022-12-07T00:58:40;9.77;;;7.93;;
22144;SDS011;11238;48.730;11.566;2022-12-07T01:01:06;8.45;;;7.30;;
22144;SDS011;11238;48.730;11.566;2022-12-07T01:03:35;10.32;;;7.63;;
22144;SDS011;11238;48.730;11.566;2022-12-07T01:06:02;8.50;;;6.93;;
22144;SDS011;11238;48.730;11.566;2022-12-07T01:08:29;9.55;;;7.22;;
22144;SDS011;11238;48.730;11.566;2022-12-07T01:11:02;9.93;;;7.63;;
22144;SDS011;11238;48.730;11.566;2022-12-07T01:13:31;10.05;;;8.18;;
22144;SDS011;11238;48.730;11.566;2022-12-07T01:15:58;9.80;;;8.05;;
22144;SDS011;11238;48.730;11.566;2022-12-07T01:18:26;9.75;;;8.20;;
22144;SDS011;11238;48.730;11.566;2022-12-07T01:21:36;10.95;;;8.15;;
22144;SDS011;11238;48.730;11.566;2022-12-07T01:23:46;10.25;;;8.45;;
22144;SDS011;11238;48.730;11.566;2022-12-07T01:26:13;10.52;;;8.18;;
22144;SDS011;11238;48.730;11.566;2022-12-07T01:28:41;10.98;;;7.95;;
22144;SDS011;11238;48.730;11.566;2022-12-07T01:31:08;18.10;;;13.57;;
22144;SDS011;11238;48.730;11.566;2022-12-07T01:33:37;10.20;;;8.32;;
22144;SDS011;11238;48.730;11.566;2022-12-07T01:36:04;10.45;;;8.43;;
22144;SDS011;11238;48.730;11.566;2022-12-07T01:38:38;12.32;;;9.80;;
22144;SDS011;11238;48.730;11.566;2022-12-07T01:41:03;12.15;;;9.23;;
22144;SDS011;11238;48.730;11.566;2022-12-07T01:43:30;11.63;;;8.60;;
22144;SDS011;11238;48.730;11.566;2022-12-07T01:45:58;12.73;;;9.30;;
22144;SDS011;11238;48.730;11.566;2022-12-07T01:48:34;12.65;;;9.25;;
22144;SDS011;11238;48.730;11.566;2022-12-07T01:51:11;11.95;;;9.25;;
22144;SDS011;11238;48.730;11.566;2022-12-07T01:53:40;12.10;;;9.52;;
22144;SDS011;11238;48.730;11.566;2022-12-07T01:56:11;15.18;;;10.05;;
22144;SDS011;11238;48.730;11.566;2022-12-07T01:58:43;14.07;;;10.00;;
22144;SDS011;11238;48.730;11.566;2022-12-07T02:01:10;11.20;;;9.15;;
22144;SDS011;11238;48.730;11.566;2022-12-07T02:03:38;15.45;;;9.20;;
22144;SDS011;11238;48.730;11.566;2022-12-07T02:06:05;12.82;;;9.60;;
22144;SDS011;11238;48.730;11.566;2022-12-07T02:08:34;13.05;;;9.70;;
22144;SDS011;11238;48.730;11.566;2022-12-07T02:11:00;13.40;;;10.35;;
22144;SDS011;11238;48.730;11.566;2022-12-07T02:13:29;13.80;;;10.10;;
22144;SDS011;11238;48.730;11.566;2022-12-07T02:29:44;14.90;;;9.95;;
22144;SDS011;11238;48.730;11.566;2022-12-07T02:32:16;15.20;;;9.93;;
22144;SDS011;11238;48.730;11.566;2022-12-07T02:35:11;14.80;;;9.77;;
22144;SDS011;11238;48.730;11.566;2022-12-07T02:37:40;15.05;;;11.18;;
22144;SDS011;11238;48.730;11.566;2022-12-07T02:43:00;13.63;;;10.20;;
22144;SDS011;11238;48.730;11.566;2022-12-07T02:45:31;19.17;;;11.07;;
22144;SDS011;11238;48.730;11.566;2022-12-07T02:48:01;15.23;;;11.35;;
22144;SDS011;11238;48.730;11.566;2022-12-07T02:50:28;13.55;;;10.75;;
22144;SDS011;11238;48.730;11.566;2022-12-07T02:52:54;16.45;;;11.25;;
22144;SDS011;11238;48.730;11.566;2022-12-07T02:55:22;16.23;;;11.55;;
22144;SDS011;11238;48.730;11.566;2022-12-07T02:58:12;15.32;;;11.20;;
22144;SDS011;11238;48.730;11.566;2022-12-07T03:04:11;16.67;;;11.68;;
22144;SDS011;11238;48.730;11.566;2022-12-07T03:06:40;15.73;;;12.48;;
22144;SDS011;11238;48.730;11.566;2022-12-07T03:09:21;16.63;;;11.57;;
22144;SDS011;11238;48.730;11.566;2022-12-07T03:12:01;17.10;;;12.80;;
22144;SDS011;11238;48.730;11.566;2022-12-07T03:14:31;17.92;;;12.43;;
22144;SDS011;11238;48.730;11.566;2022-12-07T03:19:35;19.42;;;13.63;;
22144;SDS011;11238;48.730;11.566;2022-12-07T03:22:03;19.05;;;12.90;;
22144;SDS011;11238;48.730;11.566;2022-12-07T03:24:56;19.08;;;12.10;;
22144;SDS011;11238;48.730;11.566;2022-12-07T03:27:31;17.67;;;12.27;;
22144;SDS011;11238;48.730;11.566;2022-12-07T03:30:15;16.92;;;11.95;;
22144;SDS011;11238;48.730;11.566;2022-12-07T03:35:31;20.67;;;12.82;;
22144;SDS011;11238;48.730;11.566;2022-12-07T03:43:23;16.20;;;11.90;;
22144;SDS011;11238;48.730;11.566;2022-12-07T03:46:00;18.02;;;11.95;;
22144;SDS011;11238;48.730;11.566;2022-12-07T03:51:25;17.77;;;12.27;;
22144;SDS011;11238;48.730;11.566;2022-12-07T03:54:08;17.00;;;11.80;;
22144;SDS011;11238;48.730;11.566;2022-12-07T03:56:39;16.08;;;11.48;;
22144;SDS011;11238;48.730;11.566;2022-12-07T03:59:07;19.17;;;12.82;;
22144;SDS011;11238;48.730;11.566;2022-12-07T04:01:34;17.58;;;12.20;;
22144;SDS011;11238;48.730;11.566;2022-12-07T04:03:59;17.48;;;12.15;;
22144;SDS011;11238;48.730;11.566;2022-12-07T04:06:25;17.83;;;12.48;;
22144;SDS011;11238;48.730;11.566;2022-12-07T04:08:52;18.67;;;13.07;;
22144;SDS011;11238;48.730;11.566;2022-12-07T04:11:17;17.48;;;12.50;;
22144;SDS011;11238;48.730;11.566;2022-12-07T04:13:43;19.02;;;13.07;;
22144;SDS011;11238;48.730;11.566;2022-12-07T04:16:32;18.15;;;12.27;;
22144;SDS011;11238;48.730;11.566;2022-12-07T04:18:58;18.88;;;12.82;;
22144;SDS011;11238;48.730;11.566;2022-12-07T04:21:24;18.30;;;13.27;;
22144;SDS011;11238;48.730;11.566;2022-12-07T04:23:49;19.65;;;13.35;;
22144;SDS011;11238;48.730;11.566;2022-12-07T04:26:15;20.00;;;13.45;;
22144;SDS011;11238;48.730;11.566;2022-12-07T04:28:41;18.98;;;12.93;;
22144;SDS011;11238;48.730;11.566;2022-12-07T04:31:07;21.95;;;13.90;;
22144;SDS011;11238;48.730;11.566;2022-12-07T04:33:33;18.73;;;13.35;;
22144;SDS011;11238;48.730;11.566;2022-12-07T04:36:00;20.27;;;14.40;;
22144;SDS011;11238;48.730;11.566;2022-12-07T04:38:25;21.45;;;14.38;;
22144;SDS011;11238;48.730;11.566;2022-12-07T04:40:51;21.27;;;13.85;;
22144;SDS011;11238;48.730;11.566;2022-12-07T04:43:17;18.88;;;13.20;;
22144;SDS011;11238;48.730;11.566;2022-12-07T04:45:46;20.27;;;13.18;;
22144;SDS011;11238;48.730;11.566;2022-12-07T04:48:13;19.92;;;13.70;;
22144;SDS011;11238;48.730;11.566;2022-12-07T04:50:38;19.52;;;13.75;;
22144;SDS011;11238;48.730;11.566;2022-12-07T04:53:05;18.58;;;12.82;;
22144;SDS011;11238;48.730;11.566;2022-12-07T04:55:31;17.73;;;12.98;;
22144;SDS011;11238;48.730;11.566;2022-12-07T04:57:57;19.77;;;13.55;;
22144;SDS011;11238;48.730;11.566;2022-12-07T05:00:22;22.20;;;13.30;;
22144;SDS011;11238;48.730;11.566;2022-12-07T05:02:48;20.52;;;12.82;;
22144;SDS011;11238;48.730;11.566;2022-12-07T05:05:14;17.05;;;12.07;;
22144;SDS011;11238;48.730;11.566;2022-12-07T05:07:40;19.55;;;13.27;;
22144;SDS011;11238;48.730;11.566;2022-12-07T05:10:06;19.58;;;13.13;;
22144;SDS011;11238;48.730;11.566;2022-12-07T05:12:32;21.15;;;13.02;;
22144;SDS011;11238;48.730;11.566;2022-12-07T05:14:58;18.35;;;13.23;;
22144;SDS011;11238;48.730;11.566;2022-12-07T05:17:24;17.88;;;13.10;;
22144;SDS011;11238;48.730;11.566;2022-12-07T05:19:50;21.42;;;13.50;;
22144;SDS011;11238;48.730;11.566;2022-12-07T05:22:15;18.40;;;12.82;;
22144;SDS011;11238;48.730;11.566;2022-12-07T05:24:41;19.25;;;12.57;;
22144;SDS011;11238;48.730;11.566;2022-12-07T05:27:07;19.83;;;13.60;;
22144;SDS011;11238;48.730;11.566;2022-12-07T05:29:33;20.30;;;13.63;;
22144;SDS011;11238;48.730;11.566;2022-12-07T05:31:59;18.15;;;12.55;;
22144;SDS011;11238;48.730;11.566;2022-12-07T05:34:24;20.35;;;13.07;;
22144;SDS011;11238;48.730;11.566;2022-12-07T05:36:50;17.90;;;13.32;;
22144;SDS011;11238;48.730;11.566;2022-12-07T05:39:17;19.73;;;13.23;;
22144;SDS011;11238;48.730;11.566;2022-12-07T05:41:43;19.92;;;13.05;;
22144;SDS011;11238;48.730;11.566;2022-12-07T05:44:27;18.63;;;13.43;;
22144;SDS011;11238;48.730;11.566;2022-12-07T05:46:53;20.38;;;12.63;;
22144;SDS011;11238;48.730;11.566;2022-12-07T05:49:19;20.20;;;12.90;;
22144;SDS011;11238;48.730;11.566;2022-12-07T05:51:45;17.85;;;12.60;;
22144;SDS011;11238;48.730;11.566;2022-12-07T05:54:11;18.95;;;13.32;;
22144;SDS011;11238;48.730;11.566;2022-12-07T05:56:37;18.67;;;12.82;;
22144;SDS011;11238;48.730;11.566;2022-12-07T05:59:02;18.52;;;11.65;;
22144;SDS011;11238;48.730;11.566;2022-12-07T06:01:46;18.52;;;12.07;;
22144;SDS011;11238;48.730;11.566;2022-12-07T06:04:12;17.55;;;13.18;;
22144;SDS011;11238;48.730;11.566;2022-12-07T06:06:38;18.45;;;12.32;;
22144;SDS011;11238;48.730;11.566;2022-12-07T06:09:04;20.05;;;13.45;;
22144;SDS011;11238;48.730;11.566;2022-12-07T06:11:30;21.02;;;12.95;;
22144;SDS011;11238;48.730;11.566;2022-12-07T06:14:14;18.55;;;12.95;;
22144;SDS011;11238;48.730;11.566;2022-12-07T06:16:40;20.02;;;13.25;;
22144;SDS011;11238;48.730;11.566;2022-12-07T06:19:06;21.77;;;13.40;;
22144;SDS011;11238;48.730;11.566;2022-12-07T06:21:32;21.48;;;14.00;;
22144;SDS011;11238;48.730;11.566;2022-12-07T06:23:58;20.83;;;12.73;;
22144;SDS011;11238;48.730;11.566;2022-12-07T06:26:23;18.42;;;12.88;;
22144;SDS011;11238;48.730;11.566;2022-12-07T06:28:49;23.92;;;14.13;;
22144;SDS011;11238;48.730;11.566;2022-12-07T06:31:15;21.75;;;13.63;;
22144;SDS011;11238;48.730;11.566;2022-12-07T06:33:41;20.73;;;14.00;;
22144;SDS011;11238;48.730;11.566;2022-12-07T06:36:09;22.60;;;13.80;;
22144;SDS011;11238;48.730;11.566;2022-12-07T06:38:35;24.67;;;13.30;;
22144;SDS011;11238;48.730;11.566;2022-12-07T06:41:01;19.67;;;13.65;;
22144;SDS011;11238;48.730;11.566;2022-12-07T06:43:27;20.77;;;13.63;;
22144;SDS011;11238;48.730;11.566;2022-12-07T06:45:53;18.17;;;12.55;;
22144;SDS011;11238;48.730;11.566;2022-12-07T06:48:19;15.23;;;11.07;;
22144;SDS011;11238;48.730;11.566;2022-12-07T06:50:45;18.77;;;12.75;;
22144;SDS011;11238;48.730;11.566;2022-12-07T06:53:11;19.60;;;12.95;;
22144;SDS011;11238;48.730;11.566;2022-12-07T06:55:37;18.52;;;12.75;;
22144;SDS011;11238;48.730;11.566;2022-12-07T06:58:03;18.55;;;12.45;;
22144;SDS011;11238;48.730;11.566;2022-12-07T07:00:29;18.38;;;12.50;;
22144;SDS011;11238;48.730;11.566;2022-12-07T07:02:55;20.00;;;12.15;;
22144;SDS011;11238;48.730;11.566;2022-12-07T07:05:21;17.35;;;11.93;;
22144;SDS011;11238;48.730;11.566;2022-12-07T07:07:48;21.02;;;13.48;;
22144;SDS011;11238;48.730;11.566;2022-12-07T07:10:14;22.23;;;12.80;;
22144;SDS011;11238;48.730;11.566;2022-12-07T07:12:40;22.23;;;13.05;;
22144;SDS011;11238;48.730;11.566;2022-12-07T07:15:06;19.85;;;12.65;;
22144;SDS011;11238;48.730;11.566;2022-12-07T07:17:32;22.33;;;12.40;;
22144;SDS011;11238;48.730;11.566;2022-12-07T07:19:57;19.30;;;12.80;;
22144;SDS011;11238;48.730;11.566;2022-12-07T07:22:24;25.52;;;13.88;;
22144;SDS011;11238;48.730;11.566;2022-12-07T07:24:49;22.13;;;13.10;;
22144;SDS011;11238;48.730;11.566;2022-12-07T07:27:15;23.10;;;14.63;;
22144;SDS011;11238;48.730;11.566;2022-12-07T07:29:40;23.70;;;13.65;;
22144;SDS011;11238;48.730;11.566;2022-12-07T07:32:06;22.08;;;13.55;;
22144;SDS011;11238;48.730;11.566;2022-12-07T07:34:32;21.88;;;13.27;;
22144;SDS011;11238;48.730;11.566;2022-12-07T07:36:59;23.23;;;13.88;;
22144;SDS011;11238;48.730;11.566;2022-12-07T07:39:24;24.00;;;15.32;;
22144;SDS011;11238;48.730;11.566;2022-12-07T07:41:50;25.60;;;15.30;;
22144;SDS011;11238;48.730;11.566;2022-12-07T07:44:23;23.80;;;15.18;;
22144;SDS011;11238;48.730;11.566;2022-12-07T07:46:49;27.45;;;14.95;;
22144;SDS011;11238;48.730;11.566;2022-12-07T07:49:15;26.98;;;16.42;;
22144;SDS011;11238;48.730;11.566;2022-12-07T07:51:41;30.35;;;16.02;;
22144;SDS011;11238;48.730;11.566;2022-12-07T07:54:06;32.75;;;16.67;;
22144;SDS011;11238;48.730;11.566;2022-12-07T07:56:32;30.25;;;16.42;;
22144;SDS011;11238;48.730;11.566;2022-12-07T07:58:58;30.65;;;17.23;;
22144;SDS011;11238;48.730;11.566;2022-12-07T08:01:24;28.25;;;16.83;;
22144;SDS011;11238;48.730;11.566;2022-12-07T08:03:50;26.00;;;15.55;;
22144;SDS011;11238;48.730;11.566;2022-12-07T08:06:16;28.73;;;15.73;;
22144;SDS011;11238;48.730;11.566;2022-12-07T08:08:41;25.08;;;15.40;;
22144;SDS011;11238;48.730;11.566;2022-12-07T08:11:08;24.50;;;15.30;;
22144;SDS011;11238;48.730;11.566;2022-12-07T08:13:34;24.10;;;14.88;;
22144;SDS011;11238;48.730;11.566;2022-12-07T08:16:04;25.10;;;15.25;;
22144;SDS011;11238;48.730;11.566;2022-12-07T08:18:34;25.95;;;15.48;;
22144;SDS011;11238;48.730;11.566;2022-12-07T08:21:01;38.15;;;16.80;;
22144;SDS011;11238;48.730;11.566;2022-12-07T08:23:28;27.08;;;15.95;;
22144;SDS011;11238;48.730;11.566;2022-12-07T08:25:59;26.83;;;16.80;;
22144;SDS011;11238;48.730;11.566;2022-12-07T08:28:29;26.33;;;15.88;;
22144;SDS011;11238;48.730;11.566;2022-12-07T08:31:05;30.42;;;17.20;;
22144;SDS011;11238;48.730;11.566;2022-12-07T08:33:35;28.02;;;16.52;;
22144;SDS011;11238;48.730;11.566;2022-12-07T08:36:01;25.17;;;16.63;;
22144;SDS011;11238;48.730;11.566;2022-12-07T08:38:28;22.27;;;16.17;;
22144;SDS011;11238;48.730;11.566;2022-12-07T08:40:54;26.48;;;17.00;;
22144;SDS011;11238;48.730;11.566;2022-12-07T08:43:21;24.77;;;16.00;;
22144;SDS011;11238;48.730;11.566;2022-12-07T08:46:02;26.85;;;16.67;;
22144;SDS011;11238;48.730;11.566;2022-12-07T08:48:40;26.48;;;16.48;;
22144;SDS011;11238;48.730;11.566;2022-12-07T08:51:10;23.63;;;15.57;;
22144;SDS011;11238;48.730;11.566;2022-12-07T08:53:37;19.48;;;13.20;;
22144;SDS011;11238;48.730;11.566;2022-12-07T08:56:05;20.40;;;13.13;;
22144;SDS011;11238;48.730;11.566;2022-12-07T08:58:33;21.65;;;12.75;;
22144;SDS011;11238;48.730;11.566;2022-12-07T09:01:00;22.35;;;13.40;;
22144;SDS011;11238;48.730;11.566;2022-12-07T09:03:26;17.75;;;12.93;;
22144;SDS011;11238;48.730;11.566;2022-12-07T09:05:52;17.35;;;13.07;;
22144;SDS011;11238;48.730;11.566;2022-12-07T09:08:19;18.33;;;12.60;;
22144;SDS011;11238;48.730;11.566;2022-12-07T09:10:46;19.42;;;12.93;;
22144;SDS011;11238;48.730;11.566;2022-12-07T09:13:13;18.48;;;13.02;;
22144;SDS011;11238;48.730;11.566;2022-12-07T09:15:38;20.80;;;14.20;;
22144;SDS011;11238;48.730;11.566;2022-12-07T09:18:04;20.55;;;14.02;;
22144;SDS011;11238;48.730;11.566;2022-12-07T09:20:30;22.63;;;14.90;;
22144;SDS011;11238;48.730;11.566;2022-12-07T09:22:56;22.08;;;13.90;;
22144;SDS011;11238;48.730;11.566;2022-12-07T09:25:22;21.08;;;14.60;;
22144;SDS011;11238;48.730;11.566;2022-12-07T09:27:54;21.70;;;14.43;;
22144;SDS011;11238;48.730;11.566;2022-12-07T09:30:21;23.20;;;15.03;;
22144;SDS011;11238;48.730;11.566;2022-12-07T09:32:47;22.15;;;14.82;;
22144;SDS011;11238;48.730;11.566;2022-12-07T09:35:12;22.63;;;14.90;;
22144;SDS011;11238;48.730;11.566;2022-12-07T09:37:38;23.15;;;15.52;;
22144;SDS011;11238;48.730;11.566;2022-12-07T09:40:04;25.60;;;15.45;;
22144;SDS011;11238;48.730;11.566;2022-12-07T09:44:59;22.45;;;15.75;;
22144;SDS011;11238;48.730;11.566;2022-12-07T09:47:27;22.95;;;15.82;;
22144;SDS011;11238;48.730;11.566;2022-12-07T09:49:55;22.65;;;15.57;;
22144;SDS011;11238;48.730;11.566;2022-12-07T09:52:29;24.77;;;15.77;;
22144;SDS011;11238;48.730;11.566;2022-12-07T09:54:56;22.55;;;15.38;;
22144;SDS011;11238;48.730;11.566;2022-12-07T09:57:31;23.45;;;15.38;;
22144;SDS011;11238;48.730;11.566;2022-12-07T10:00:06;23.58;;;14.20;;
22144;SDS011;11238;48.730;11.566;2022-12-07T10:02:38;23.27;;;14.85;;
22144;SDS011;11238;48.730;11.566;2022-12-07T10:05:09;22.65;;;14.45;;
22144;SDS011;11238;48.730;11.566;2022-12-07T10:07:45;21.73;;;14.18;;
22144;SDS011;11238;48.730;11.566;2022-12-07T10:10:15;22.50;;;14.73;;
22144;SDS011;11238;48.730;11.566;2022-12-07T10:15:51;20.25;;;13.85;;
22144;SDS011;11238;48.730;11.566;2022-12-07T10:18:32;21.33;;;14.13;;
22144;SDS011;11238;48.730;11.566;2022-12-07T10:21:11;23.25;;;14.02;;
22144;SDS011;11238;48.730;11.566;2022-12-07T10:23:43;19.98;;;13.73;;
22144;SDS011;11238;48.730;11.566;2022-12-07T10:26:51;21.05;;;13.82;;
22144;SDS011;11238;48.730;11.566;2022-12-07T10:29:27;21.55;;;13.13;;
22144;SDS011;11238;48.730;11.566;2022-12-07T10:32:04;21.33;;;13.95;;
22144;SDS011;11238;48.730;11.566;2022-12-07T10:34:50;21.02;;;13.75;;
22144;SDS011;11238;48.730;11.566;2022-12-07T10:37:39;20.88;;;12.98;;
22144;SDS011;11238;48.730;11.566;2022-12-07T10:40:23;20.58;;;12.77;;
22144;SDS011;11238;48.730;11.566;2022-12-07T10:51:02;19.08;;;13.48;;
22144;SDS011;11238;48.730;11.566;2022-12-07T11:01:52;19.67;;;13.05;;
22144;SDS011;11238;48.730;11.566;2022-12-07T11:13:15;21.95;;;13.15;;
22144;SDS011;11238;48.730;11.566;2022-12-07T11:15:51;23.17;;;13.25;;
22144;SDS011;11238;48.730;11.566;2022-12-07T11:35:02;19.35;;;11.82;;
22144;SDS011;11238;48.730;11.566;2022-12-07T11:40:29;21.70;;;11.88;;
22144;SDS011;11238;48.730;11.566;2022-12-07T11:43:04;22.00;;;11.65;;
22144;SDS011;11238;48.730;11.566;2022-12-07T11:45:31;18.27;;;11.45;;
22144;SDS011;11238;48.730;11.566;2022-12-07T11:53:29;17.45;;;11.60;;
22144;SDS011;11238;48.730;11.566;2022-12-07T11:56:13;18.83;;;11.27;;
22144;SDS011;11238;48.730;11.566;2022-12-07T12:04:16;17.67;;;11.38;;
22144;SDS011;11238;48.730;11.566;2022-12-07T12:07:05;17.45;;;11.00;;
22144;SDS011;11238;48.730;11.566;2022-12-07T12:09:36;18.10;;;11.50;;
22144;SDS011;11238;48.730;11.566;2022-12-07T12:20:55;17.95;;;11.18;;
22144;SDS011;11238;48.730;11.566;2022-12-07T12:23:43;15.43;;;10.25;;
22144;SDS011;11238;48.730;11.566;2022-12-07T12:26:20;17.85;;;10.85;;
22144;SDS011;11238;48.730;11.566;2022-12-07T12:28:55;20.40;;;10.80;;
22144;SDS011;11238;48.730;11.566;2022-12-07T12:31:39;15.48;;;10.85;;
22144;SDS011;11238;48.730;11.566;2022-12-07T12:36:56;12.95;;;9.50;;
22144;SDS011;11238;48.730;11.566;2022-12-07T12:39:22;18.35;;;10.82;;
22144;SDS011;11238;48.730;11.566;2022-12-07T12:57:34;15.32;;;10.27;;
22144;SDS011;11238;48.730;11.566;2022-12-07T13:00:46;17.30;;;9.88;;
22144;SDS011;11238;48.730;11.566;2022-12-07T13:03:27;18.40;;;10.45;;
22144;SDS011;11238;48.730;11.566;2022-12-07T13:08:57;18.75;;;10.48;;
22144;SDS011;11238;48.730;11.566;2022-12-07T13:11:27;16.63;;;10.77;;
22144;SDS011;11238;48.730;11.566;2022-12-07T13:17:04;20.67;;;9.85;;
22144;SDS011;11238;48.730;11.566;2022-12-07T13:19:54;16.35;;;9.80;;
22144;SDS011;11238;48.730;11.566;2022-12-07T13:22:34;15.23;;;10.00;;
22144;SDS011;11238;48.730;11.566;2022-12-07T13:28:15;15.60;;;9.98;;
22144;SDS011;11238;48.730;11.566;2022-12-07T13:30:46;17.33;;;10.13;;
22144;SDS011;11238;48.730;11.566;2022-12-07T13:33:34;19.20;;;10.20;;
22144;SDS011;11238;48.730;11.566;2022-12-07T13:36:00;17.65;;;9.75;;
22144;SDS011;11238;48.730;11.566;2022-12-07T13:38:31;20.52;;;10.15;;
22144;SDS011;11238;48.730;11.566;2022-12-07T13:41:02;16.13;;;9.95;;
22144;SDS011;11238;48.730;11.566;2022-12-07T13:43:30;21.80;;;10.20;;
22144;SDS011;11238;48.730;11.566;2022-12-07T13:45:59;20.70;;;9.85;;
22144;SDS011;11238;48.730;11.566;2022-12-07T13:48:33;18.83;;;9.88;;
22144;SDS011;11238;48.730;11.566;2022-12-07T13:51:43;15.98;;;9.60;;
22144;SDS011;11238;48.730;11.566;2022-12-07T13:54:09;14.75;;;9.40;;
22144;SDS011;11238;48.730;11.566;2022-12-07T13:56:36;13.30;;;8.98;;
22144;SDS011;11238;48.730;11.566;2022-12-07T13:59:05;14.35;;;9.27;;
22144;SDS011;11238;48.730;11.566;2022-12-07T14:01:58;17.00;;;9.35;;
22144;SDS011;11238;48.730;11.566;2022-12-07T14:04:32;17.95;;;9.52;;
22144;SDS011;11238;48.730;11.566;2022-12-07T14:07:19;15.95;;;8.55;;
22144;SDS011;11238;48.730;11.566;2022-12-07T14:10:00;17.00;;;9.10;;
22144;SDS011;11238;48.730;11.566;2022-12-07T14:12:31;18.52;;;9.80;;
22144;SDS011;11238;48.730;11.566;2022-12-07T14:15:00;13.88;;;8.45;;
22144;SDS011;11238;48.730;11.566;2022-12-07T14:17:27;14.27;;;9.05;;
22144;SDS011;11238;48.730;11.566;2022-12-07T14:20:00;18.00;;;8.38;;
22144;SDS011;11238;48.730;11.566;2022-12-07T14:22:34;14.90;;;8.73;;
22144;SDS011;11238;48.730;11.566;2022-12-07T14:30:25;16.20;;;8.65;;
22144;SDS011;11238;48.730;11.566;2022-12-07T14:32:54;21.23;;;8.77;;
22144;SDS011;11238;48.730;11.566;2022-12-07T14:35:28;28.67;;;9.35;;
22144;SDS011;11238;48.730;11.566;2022-12-07T14:37:54;18.45;;;8.90;;
22144;SDS011;11238;48.730;11.566;2022-12-07T14:40:25;19.27;;;8.95;;
22144;SDS011;11238;48.730;11.566;2022-12-07T14:42:57;18.08;;;8.65;;
22144;SDS011;11238;48.730;11.566;2022-12-07T14:45:27;14.57;;;8.30;;
22144;SDS011;11238;48.730;11.566;2022-12-07T14:47:53;13.98;;;8.57;;
22144;SDS011;11238;48.730;11.566;2022-12-07T14:50:20;16.17;;;8.70;;
22144;SDS011;11238;48.730;11.566;2022-12-07T14:52:51;14.25;;;8.73;;
22144;SDS011;11238;48.730;11.566;2022-12-07T14:55:25;17.42;;;9.15;;
22144;SDS011;11238;48.730;11.566;2022-12-07T14:57:55;17.90;;;9.25;;
22144;SDS011;11238;48.730;11.566;2022-12-07T15:00:23;18.77;;;9.00;;
22144;SDS011;11238;48.730;11.566;2022-12-07T15:02:51;19.17;;;9.43;;
22144;SDS011;11238;48.730;11.566;2022-12-07T15:05:18;17.98;;;9.10;;
22144;SDS011;11238;48.730;11.566;2022-12-07T15:07:44;17.60;;;9.52;;
22144;SDS011;11238;48.730;11.566;2022-12-07T15:10:16;15.82;;;9.48;;
22144;SDS011;11238;48.730;11.566;2022-12-07T15:12:43;17.23;;;9.65;;
22144;SDS011;11238;48.730;11.566;2022-12-07T15:15:09;19.92;;;8.82;;
22144;SDS011;11238;48.730;11.566;2022-12-07T15:17:35;16.90;;;8.45;;
22144;SDS011;11238;48.730;11.566;2022-12-07T15:20:17;15.77;;;8.43;;
22144;SDS011;11238;48.730;11.566;2022-12-07T15:22:43;13.68;;;8.50;;
22144;SDS011;11238;48.730;11.566;2022-12-07T15:25:12;13.65;;;8.20;;
22144;SDS011;11238;48.730;11.566;2022-12-07T15:27:38;13.88;;;8.65;;
22144;SDS011;11238;48.730;11.566;2022-12-07T15:30:04;15.57;;;8.20;;
22144;SDS011;11238;48.730;11.566;2022-12-07T15:32:31;14.73;;;8.10;;
22144;SDS011;11238;48.730;11.566;2022-12-07T15:34:59;13.38;;;9.00;;
22144;SDS011;11238;48.730;11.566;2022-12-07T15:37:25;14.80;;;7.78;;
22144;SDS011;11238;48.730;11.566;2022-12-07T15:39:52;14.95;;;7.95;;
22144;SDS011;11238;48.730;11.566;2022-12-07T15:42:17;11.75;;;7.78;;
22144;SDS011;11238;48.730;11.566;2022-12-07T15:44:43;12.00;;;7.45;;
22144;SDS011;11238;48.730;11.566;2022-12-07T15:47:27;15.95;;;8.13;;
22144;SDS011;11238;48.730;11.566;2022-12-07T15:49:53;12.27;;;7.97;;
22144;SDS011;11238;48.730;11.566;2022-12-07T15:52:19;13.60;;;7.97;;
22144;SDS011;11238;48.730;11.566;2022-12-07T15:54:45;13.50;;;7.80;;
22144;SDS011;11238;48.730;11.566;2022-12-07T15:57:12;13.45;;;8.25;;
22144;SDS011;11238;48.730;11.566;2022-12-07T15:59:38;17.38;;;8.25;;
22144;SDS011;11238;48.730;11.566;2022-12-07T16:02:05;11.43;;;7.32;;
22144;SDS011;11238;48.730;11.566;2022-12-07T16:04:31;12.10;;;7.28;;
22144;SDS011;11238;48.730;11.566;2022-12-07T16:06:56;14.07;;;8.00;;
22144;SDS011;11238;48.730;11.566;2022-12-07T16:09:23;11.68;;;7.40;;
22144;SDS011;11238;48.730;11.566;2022-12-07T16:11:48;14.07;;;8.05;;
22144;SDS011;11238;48.730;11.566;2022-12-07T16:14:15;15.48;;;7.80;;
22144;SDS011;11238;48.730;11.566;2022-12-07T16:16:41;12.70;;;8.57;;
22144;SDS011;11238;48.730;11.566;2022-12-07T16:19:07;13.25;;;7.75;;
22144;SDS011;11238;48.730;11.566;2022-12-07T16:21:34;11.48;;;7.82;;
22144;SDS011;11238;48.730;11.566;2022-12-07T16:24:00;14.05;;;8.05;;
22144;SDS011;11238;48.730;11.566;2022-12-07T16:26:26;13.23;;;8.48;;
22144;SDS011;11238;48.730;11.566;2022-12-07T16:28:52;15.90;;;8.43;;
22144;SDS011;11238;48.730;11.566;2022-12-07T16:31:21;13.85;;;8.63;;
22144;SDS011;11238;48.730;11.566;2022-12-07T16:33:48;15.40;;;8.48;;
22144;SDS011;11238;48.730;11.566;2022-12-07T16:36:15;13.57;;;8.95;;
22144;SDS011;11238;48.730;11.566;2022-12-07T16:38:42;14.70;;;8.45;;
22144;SDS011;11238;48.730;11.566;2022-12-07T16:41:08;13.80;;;8.27;;
22144;SDS011;11238;48.730;11.566;2022-12-07T16:43:35;14.15;;;8.93;;
22144;SDS011;11238;48.730;11.566;2022-12-07T16:46:01;16.85;;;8.27;;
22144;SDS011;11238;48.730;11.566;2022-12-07T16:48:27;16.00;;;8.60;;